Time;durP1;ratioP1;P1;durP2;ratioP2;P2;SDS_P1;SDS_P2;PMS_P1;PMS_P2;Temp;Humidity;BMP_temperature;BMP_pressure;BME280_temperature;BME280_humidity;BME280_pressure;Samples;Min_cycle;Max_cycle;Signal;HPM_P1;HPM_P2
2023/02/06 00:00:06;;;;;;;102.40;41.70;;;;;;;-4.32;94.64;101232.18;273819;1260;22553;-84
2023/02/06 00:06:09;;;;;;;96.10;40.30;;;;;;;-4.32;94.70;101236.09;273696;1260;22198;-84
2023/02/06 00:12:12;;;;;;;99.40;41.50;;;;;;;-4.28;94.73;101224.13;272764;1269;22214;-84
2023/02/06 00:18:16;;;;;;;92.30;38.40;;;;;;;-4.26;94.67;101220.52;272293;1269;22381;-84
2023/02/06 00:24:18;;;;;;;76.60;33.00;;;;;;;-4.28;94.68;101222.89;273498;1266;22195;-84
2023/02/06 00:30:28;;;;;;;72.10;30.20;;;;;;;-4.25;94.57;101221.21;271106;1269;22550;-84
2023/02/06 00:36:31;;;;;;;78.40;33.60;;;;;;;-4.28;94.45;101216.36;269702;1267;22630;-85
2023/02/06 00:42:33;;;;;;;82.80;36.10;;;;;;;-4.26;94.74;101217.98;270094;1269;22574;-83
2023/02/06 00:48:35;;;;;;;92.20;39.50;;;;;;;-4.30;94.76;101210.70;269467;1260;22603;-84
2023/02/06 00:54:38;;;;;;;86.10;35.80;;;;;;;-4.30;94.99;101208.77;269565;1269;22534;-85
2023/02/06 01:00:40;;;;;;;79.30;35.20;;;;;;;-4.29;95.03;101205.11;269412;1266;23562;-84
2023/02/06 01:06:41;;;;;;;84.50;35.60;;;;;;;-4.30;95.17;101204.12;272138;1270;22264;-84
2023/02/06 01:12:59;;;;;;;80.30;32.90;;;;;;;-4.30;95.14;101207.73;270214;1269;22626;-83
2023/02/06 01:19:01;;;;;;;76.50;33.40;;;;;;;-4.29;95.37;101207.20;269957;1269;22527;-84
2023/02/06 01:25:04;;;;;;;67.00;28.50;;;;;;;-4.30;95.35;101196.03;269466;1260;23235;-84
2023/02/06 01:31:11;;;;;;;58.40;25.10;;;;;;;-4.29;95.32;101190.33;270819;1258;22385;-84
2023/02/06 01:37:13;;;;;;;63.20;26.80;;;;;;;-4.39;94.71;101177.49;273539;1260;22202;-85
2023/02/06 01:43:18;;;;;;;85.80;38.50;;;;;;;-4.41;94.77;101175.66;273495;1270;22345;-84
2023/02/06 01:49:26;;;;;;;95.20;41.50;;;;;;;-4.48;94.82;101171.45;273723;1269;22225;-84
2023/02/06 01:55:28;;;;;;;91.60;39.90;;;;;;;-4.46;95.53;101169.54;273884;1258;22203;-84
2023/02/06 02:01:50;;;;;;;97.50;42.50;;;;;;;-4.39;95.69;101161.00;273854;1270;22205;-84
2023/02/06 02:08:02;;;;;;;97.50;44.90;;;;;;;-4.38;95.63;101157.25;273782;1269;22973;-84
2023/02/06 02:14:06;;;;;;;98.60;42.50;;;;;;;-4.36;95.78;101156.89;273622;1269;22357;-84
2023/02/06 02:20:37;;;;;;;98.80;44.20;;;;;;;-4.34;95.81;101151.70;273850;1259;23021;-84
2023/02/06 02:26:51;;;;;;;93.80;40.20;;;;;;;-4.39;95.53;101148.95;274038;1261;22293;-84
2023/02/06 02:33:12;;;;;;;99.80;41.60;;;;;;;-4.43;95.62;101146.20;273682;1260;22315;-84
2023/02/06 02:39:24;;;;;;;103.00;43.70;;;;;;;-4.41;95.90;101143.79;273745;1269;22459;-85
2023/02/06 02:45:51;;;;;;;97.50;41.30;;;;;;;-4.42;95.85;101139.77;271300;1265;22340;-83
2023/02/06 02:51:53;;;;;;;100.00;45.70;;;;;;;-4.45;95.93;101128.55;273464;1270;22338;-83
2023/02/06 02:58:00;;;;;;;92.70;39.20;;;;;;;-4.47;96.05;101121.13;273881;1253;22195;-83
2023/02/06 03:04:41;;;;;;;90.70;39.40;;;;;;;-4.47;96.02;101115.54;272256;1257;25492;-83
2023/02/06 03:10:58;;;;;;;90.50;39.50;;;;;;;-4.42;96.18;101111.11;273729;1267;22343;-85
2023/02/06 03:17:08;;;;;;;83.00;35.60;;;;;;;-4.38;96.20;101117.10;273348;1260;23116;-83
2023/02/06 03:23:20;;;;;;;80.10;33.50;;;;;;;-4.44;95.80;101111.95;270538;1270;23269;-83
2023/02/06 03:29:22;;;;;;;89.80;37.30;;;;;;;-4.53;95.89;101105.98;272018;1269;22593;-83
2023/02/06 03:35:35;;;;;;;83.60;36.70;;;;;;;-4.52;96.15;101114.87;270051;1267;22556;-83
2023/02/06 03:41:38;;;;;;;89.50;36.30;;;;;;;-4.58;95.95;101119.68;272107;1262;22364;-83
2023/02/06 03:47:41;;;;;;;87.70;37.10;;;;;;;-4.57;96.28;101128.17;270189;1269;22650;-82
2023/02/06 03:53:48;;;;;;;83.40;37.10;;;;;;;-4.55;96.38;101138.92;269209;1260;23917;-82
2023/02/06 03:59:50;;;;;;;90.00;40.60;;;;;;;-4.56;96.46;101145.46;269229;1269;24378;-82
2023/02/06 04:05:52;;;;;;;89.50;37.90;;;;;;;-4.56;96.50;101137.29;271715;1257;22378;-86
2023/02/06 04:11:54;;;;;;;100.10;42.20;;;;;;;-4.62;96.39;101129.47;273790;1257;22353;-83
2023/02/06 04:17:56;;;;;;;101.40;43.00;;;;;;;-4.59;96.67;101120.79;274049;1273;22228;-83
2023/02/06 04:23:58;;;;;;;103.20;43.20;;;;;;;-4.53;96.71;101112.94;273725;1258;22409;-83
2023/02/06 04:30:00;;;;;;;94.20;41.60;;;;;;;-4.54;96.46;101102.75;273638;1254;22273;-83
2023/02/06 04:36:02;;;;;;;100.10;42.40;;;;;;;-4.59;96.39;101108.30;273393;1257;23510;-83
2023/02/06 04:42:09;;;;;;;95.50;41.40;;;;;;;-4.56;96.56;101110.61;273634;1269;22203;-83
2023/02/06 04:48:11;;;;;;;90.90;40.20;;;;;;;-4.55;96.71;101114.81;273697;1269;22410;-83
2023/02/06 04:54:14;;;;;;;89.10;40.30;;;;;;;-4.51;96.69;101126.56;274015;1253;22174;-83
2023/02/06 05:00:16;;;;;;;93.20;42.10;;;;;;;-4.46;96.80;101135.30;273683;1266;22289;-83
2023/02/06 05:06:17;;;;;;;105.30;46.70;;;;;;;-4.47;96.66;101136.15;273716;1269;23683;-83
2023/02/06 05:12:19;;;;;;;107.20;45.30;;;;;;;-4.51;96.76;101139.30;273663;1254;22915;-83
2023/02/06 05:18:43;;;;;;;102.60;44.20;;;;;;;-4.48;97.05;101144.51;273401;1269;35156;-83
2023/02/06 05:24:54;;;;;;;100.10;46.20;;;;;;;-4.47;96.99;101150.25;271804;1269;22592;-82
2023/02/06 05:30:56;;;;;;;103.50;46.40;;;;;;;-4.50;97.09;101153.98;270300;1270;24393;-82
2023/02/06 05:36:57;;;;;;;100.30;47.20;;;;;;;-4.49;97.19;101157.16;270444;1270;26288;-82
2023/02/06 05:42:59;;;;;;;108.90;46.80;;;;;;;-4.48;97.29;101163.14;270410;1259;22592;-82
2023/02/06 05:49:01;;;;;;;105.70;44.00;;;;;;;-4.49;97.25;101158.84;269867;1268;22339;-84
2023/02/06 05:55:04;;;;;;;122.70;49.70;;;;;;;-4.51;97.26;101152.35;271411;1270;23938;-83
2023/02/06 06:01:06;;;;;;;92.10;43.20;;;;;;;-4.51;97.37;101155.93;269416;1259;22564;-83
2023/02/06 06:07:07;;;;;;;104.60;47.50;;;;;;;-4.56;97.13;101153.81;269148;1257;22569;-84
2023/02/06 06:13:09;;;;;;;111.30;50.80;;;;;;;-4.52;97.40;101149.54;270225;1256;25459;-82
2023/02/06 06:19:12;;;;;;;128.90;54.60;;;;;;;-4.47;97.46;101154.21;269868;1260;22742;-83
2023/02/06 06:25:14;;;;;;;137.70;60.10;;;;;;;-4.47;97.46;101152.55;271494;1270;22752;-83
2023/02/06 06:31:16;;;;;;;131.40;57.70;;;;;;;-4.46;97.65;101146.41;269592;1256;22553;-82
2023/02/06 06:37:18;;;;;;;120.20;56.00;;;;;;;-4.44;97.62;101143.98;269881;1270;22517;-83
2023/02/06 06:43:20;;;;;;;127.40;53.90;;;;;;;-4.44;97.40;101144.05;269570;1263;22730;-82
2023/02/06 06:49:22;;;;;;;101.80;47.10;;;;;;;-4.51;97.12;101147.21;270393;1270;23595;-83
2023/02/06 06:55:24;;;;;;;106.30;45.50;;;;;;;-4.62;97.01;101149.57;270028;1269;22365;-83
2023/02/06 07:01:25;;;;;;;93.30;43.20;;;;;;;-4.69;97.14;101154.77;273516;1271;22256;-83
2023/02/06 07:07:27;;;;;;;95.40;42.80;;;;;;;-4.64;97.37;101155.56;273122;1270;22186;-83
2023/02/06 07:13:31;;;;;;;100.50;44.80;;;;;;;-4.58;97.25;101153.96;273047;1263;22321;-83
2023/02/06 07:19:37;;;;;;;94.80;41.50;;;;;;;-4.54;97.02;101154.29;272982;1260;22179;-84
2023/02/06 07:25:40;;;;;;;99.40;43.40;;;;;;;-4.42;97.53;101155.86;273105;1272;22201;-83
2023/02/06 07:31:41;;;;;;;94.20;41.10;;;;;;;-4.29;97.26;101155.95;271984;1259;22547;-83
2023/02/06 07:37:43;;;;;;;100.50;43.90;;;;;;;-4.17;97.31;101151.69;271064;1266;23812;-83
2023/02/06 07:43:45;;;;;;;93.40;42.30;;;;;;;-3.93;97.55;101150.90;270194;1270;25303;-83
2023/02/06 07:49:47;;;;;;;101.00;50.10;;;;;;;-3.70;97.43;101153.98;271843;1256;23796;-83
2023/02/06 07:55:48;;;;;;;105.40;50.60;;;;;;;-3.38;97.62;101153.48;273005;1261;23695;-84
2023/02/06 08:01:51;;;;;;;93.20;42.80;;;;;;;-3.06;97.14;101151.66;273212;1258;22272;-84
2023/02/06 08:07:55;;;;;;;92.80;41.50;;;;;;;-2.96;96.53;101152.81;273221;1259;22264;-84
2023/02/06 08:13:57;;;;;;;87.90;40.00;;;;;;;-2.75;96.35;101146.51;273243;1270;22958;-83
2023/02/06 08:19:59;;;;;;;85.30;38.70;;;;;;;-2.60;95.98;101146.91;272175;1257;22570;-83
2023/02/06 08:26:04;;;;;;;74.40;36.70;;;;;;;-2.50;95.66;101139.55;272696;1261;22337;-84
2023/02/06 08:32:09;;;;;;;85.20;40.30;;;;;;;-2.13;95.65;101136.95;273061;1270;22650;-84
2023/02/06 08:38:11;;;;;;;96.30;41.00;;;;;;;-1.67;95.52;101147.27;273362;1259;22297;-85
2023/02/06 08:44:16;;;;;;;86.00;38.80;;;;;;;-1.40;94.24;101147.63;273174;1263;22260;-86
2023/02/06 08:50:19;;;;;;;81.80;36.60;;;;;;;-1.26;93.61;101147.63;270365;1272;22378;-86
2023/02/06 08:56:21;;;;;;;51.20;23.60;;;;;;;-1.13;93.57;101149.06;271145;1263;22272;-87
2023/02/06 09:02:22;;;;;;;54.70;23.50;;;;;;;-1.25;92.69;101147.17;273685;1270;23170;-86
2023/02/06 09:08:45;;;;;;;50.90;22.60;;;;;;;-1.50;91.94;101151.81;273602;1271;22223;-86
2023/02/06 09:14:47;;;;;;;47.60;22.70;;;;;;;-1.58;91.86;101155.27;273239;1256;23399;-86
2023/02/06 09:21:01;;;;;;;53.30;24.40;;;;;;;-1.69;91.71;101154.83;273247;1270;22263;-86
2023/02/06 09:27:10;;;;;;;47.00;23.80;;;;;;;-1.80;91.72;101159.42;269768;1270;276999;-86
2023/02/06 09:33:13;;;;;;;48.40;23.20;;;;;;;-1.94;91.59;101163.60;270008;1270;22547;-86
2023/02/06 09:39:17;;;;;;;47.10;22.50;;;;;;;-1.94;91.83;101164.59;271734;1269;22446;-86
2023/02/06 09:45:22;;;;;;;40.90;19.70;;;;;;;-1.83;91.40;101165.75;271409;1269;22219;-86
2023/02/06 09:51:33;;;;;;;33.90;17.30;;;;;;;-1.90;90.99;101164.81;273074;1270;22440;-86
2023/02/06 09:57:46;;;;;;;39.00;19.40;;;;;;;-2.04;90.55;101163.70;273463;1259;23593;-86
2023/02/06 10:04:27;;;;;;;36.10;17.20;;;;;;;-2.11;90.04;101164.55;272140;1269;22304;-85
2023/02/06 10:10:35;;;;;;;28.20;13.40;;;;;;;-2.15;89.59;101160.27;272552;1257;22444;-85
2023/02/06 10:17:06;;;;;;;37.50;18.30;;;;;;;-2.06;89.34;101165.55;272084;1269;24578;-85
2023/02/06 10:23:15;;;;;;;65.10;29.00;;;;;;;-1.95;89.56;101167.63;273449;1263;22443;-85
2023/02/06 10:29:51;;;;;;;57.50;28.70;;;;;;;-1.84;89.77;101168.58;273322;1259;23214;-85
2023/02/06 10:36:06;;;;;;;52.60;26.50;;;;;;;-1.73;89.61;101167.98;272957;1270;22548;-86
2023/02/06 10:42:26;;;;;;;51.30;24.30;;;;;;;-1.70;89.05;101170.06;273129;1259;22606;-86
2023/02/06 10:48:57;;;;;;;57.10;25.90;;;;;;;-1.73;88.96;101164.97;272119;1267;22225;-85
2023/02/06 10:55:38;;;;;;;52.00;24.10;;;;;;;-1.95;89.07;101153.70;271626;1270;23353;-87
2023/02/06 11:01:41;;;;;;;29.10;13.70;;;;;;;-2.01;88.65;101160.17;271920;1259;22234;-85
2023/02/06 11:07:49;;;;;;;31.80;12.80;;;;;;;-2.00;88.06;101161.96;273300;1256;22356;-85
2023/02/06 11:14:34;;;;;;;22.20;10.70;;;;;;;-1.98;87.94;101159.84;271832;1270;22210;-85
2023/02/06 11:20:37;;;;;;;21.80;10.80;;;;;;;-2.01;88.14;101151.83;273073;1270;22198;-85
2023/02/06 11:26:41;;;;;;;21.70;9.70;;;;;;;-2.02;88.38;101147.05;273131;1259;22296;-84
2023/02/06 11:32:44;;;;;;;19.60;9.70;;;;;;;-1.97;88.10;101148.15;273428;1272;23435;-84
2023/02/06 11:39:05;;;;;;;19.50;9.40;;;;;;;-2.00;88.08;101150.04;273454;1262;22399;-85
2023/02/06 11:45:42;;;;;;;16.60;8.20;;;;;;;-1.99;87.57;101144.79;273287;1262;22963;-85
2023/02/06 11:52:48;;;;;;;15.80;7.90;;;;;;;-1.98;87.37;101147.62;273661;1270;23437;-84
2023/02/06 11:59:23;;;;;;;15.60;8.30;;;;;;;-1.98;86.95;101151.79;273697;1272;22415;-84
2023/02/06 12:05:27;;;;;;;17.40;8.80;;;;;;;-1.98;86.86;101144.31;273721;1259;22256;-85
2023/02/06 12:12:08;;;;;;;13.10;7.00;;;;;;;-1.90;86.68;101142.65;272731;1259;22834;-85
2023/02/06 12:18:19;;;;;;;15.40;8.10;;;;;;;-1.83;85.95;101149.69;270601;1270;22527;-85
2023/02/06 12:24:31;;;;;;;16.90;9.10;;;;;;;-1.84;85.77;101148.76;270119;1259;22587;-85
2023/02/06 12:30:55;;;;;;;15.70;8.40;;;;;;;-1.85;85.81;101146.61;269606;1259;23625;-85
2023/02/06 12:37:21;;;;;;;16.90;8.80;;;;;;;-1.84;85.19;101153.55;269693;1257;23717;-86
2023/02/06 12:43:22;;;;;;;19.20;10.30;;;;;;;-1.87;85.17;101155.63;270670;1271;22348;-85
2023/02/06 12:49:29;;;;;;;15.20;8.40;;;;;;;-2.02;84.68;101150.10;270945;1264;23063;-85
2023/02/06 12:55:34;;;;;;;;;;;;;;;-2.10;84.63;101145.86;269125;1270;25373;-87
2023/02/06 13:01:41;;;;;;;22.90;9.50;;;;;;;-2.08;84.51;101148.71;269762;1271;23370;-84
2023/02/06 13:08:02;;;;;;;21.60;10.20;;;;;;;-2.09;84.36;101157.17;269221;1270;23861;-84
2023/02/06 13:14:40;;;;;;;16.60;9.00;;;;;;;-2.14;83.79;101168.66;268813;1269;22540;-84
2023/02/06 13:21:12;;;;;;;17.20;9.80;;;;;;;-2.25;83.42;101166.40;270715;1269;22622;-84
2023/02/06 13:27:25;;;;;;;21.40;9.20;;;;;;;-2.34;83.36;101165.59;269397;1257;25391;-86
2023/02/06 13:33:38;;;;;;;19.80;10.00;;;;;;;-2.36;83.15;101164.15;269165;1270;22558;-88
2023/02/06 13:40:09;;;;;;;17.50;8.60;;;;;;;-2.42;82.87;101171.09;269664;1269;25245;-84
2023/02/06 13:46:44;;;;;;;21.50;11.00;;;;;;;-2.50;82.77;101171.00;269759;1272;23802;-86
2023/02/06 13:52:58;;;;;;;20.10;10.30;;;;;;;-2.50;82.71;101171.59;272749;1259;22228;-85
2023/02/06 13:59:13;;;;;;;21.90;9.80;;;;;;;-2.52;82.47;101172.73;272373;1270;22995;-85
2023/02/06 14:05:21;;;;;;;18.20;8.80;;;;;;;-2.53;82.13;101173.58;273413;1262;22295;-85
2023/02/06 14:11:35;;;;;;;14.60;7.70;;;;;;;-2.49;82.15;101183.04;273526;1277;22233;-86
2023/02/06 14:17:55;;;;;;;15.80;8.70;;;;;;;-2.45;81.92;101188.05;273230;1259;22991;-87
2023/02/06 14:24:19;;;;;;;20.00;9.10;;;;;;;-2.42;81.54;101191.97;272705;1259;23740;-86
2023/02/06 14:30:43;;;;;;;16.40;8.20;;;;;;;-2.46;81.50;101194.27;270371;1270;24294;-87
2023/02/06 14:37:02;;;;;;;17.40;8.50;;;;;;;-2.52;81.52;101193.48;270179;1262;25352;-87
2023/02/06 14:43:10;;;;;;;21.30;9.50;;;;;;;-2.60;81.29;101198.25;270113;1270;22548;-87
2023/02/06 14:49:15;;;;;;;17.10;8.50;;;;;;;-2.69;81.10;101199.56;269036;1272;22538;-86
2023/02/06 14:55:40;;;;;;;19.10;9.80;;;;;;;-2.78;81.14;101199.73;273158;1262;22364;-86
2023/02/06 15:01:48;;;;;;;20.60;11.00;;;;;;;-2.82;81.16;101199.31;270407;1271;22570;-87
2023/02/06 15:08:17;;;;;;;20.40;10.60;;;;;;;-2.90;80.72;101197.14;273380;1259;22251;-87
2023/02/06 15:14:23;;;;;;;19.50;10.00;;;;;;;-3.07;80.19;101190.97;273344;1269;22165;-86
2023/02/06 15:20:28;;;;;;;15.80;8.10;;;;;;;-3.19;80.19;101193.16;273326;1259;22287;-86
2023/02/06 15:26:47;;;;;;;30.00;14.80;;;;;;;-3.27;80.34;101203.13;273232;1275;22196;-87
2023/02/06 15:32:51;;;;;;;24.60;13.90;;;;;;;-3.35;80.29;101202.58;273311;1272;22239;-87
2023/02/06 15:38:53;;;;;;;27.10;13.60;;;;;;;-3.44;80.16;101201.65;272126;1262;22422;-87
2023/02/06 15:44:55;;;;;;;29.70;13.90;;;;;;;-3.51;80.15;101209.77;273289;1259;23210;-87
2023/02/06 15:51:07;;;;;;;29.30;13.80;;;;;;;-3.57;80.23;101215.30;273148;1272;22243;-87
2023/02/06 15:57:20;;;;;;;43.60;18.00;;;;;;;-3.64;80.27;101215.89;273286;1272;22165;-87
2023/02/06 16:03:25;;;;;;;33.30;16.70;;;;;;;-3.72;80.29;101218.23;273343;1259;22217;-87
2023/02/06 16:09:28;;;;;;;43.70;19.90;;;;;;;-3.80;80.40;101219.41;272861;1254;24383;-87
2023/02/06 16:15:35;;;;;;;52.00;23.70;;;;;;;-3.86;80.33;101221.27;272257;1271;22337;-87
2023/02/06 16:21:41;;;;;;;70.40;30.00;;;;;;;-3.99;80.52;101228.36;271013;1270;22321;-88
2023/02/06 16:27:45;;;;;;;58.00;25.90;;;;;;;-4.11;80.49;101232.10;273311;1259;23584;-87
2023/02/06 16:33:49;;;;;;;77.00;32.30;;;;;;;-4.33;80.44;101237.89;271292;1270;23172;-88
2023/02/06 16:39:53;;;;;;;79.90;33.80;;;;;;;-4.53;80.64;101233.92;271271;1270;22762;-87
2023/02/06 16:45:55;;;;;;;48.20;23.80;;;;;;;-4.75;80.82;101234.48;269757;1271;25015;-87
2023/02/06 16:51:59;;;;;;;59.20;28.20;;;;;;;-4.95;81.21;101236.37;270333;1271;22625;-86
2023/02/06 16:58:01;;;;;;;78.60;36.10;;;;;;;-5.15;81.25;101239.09;272080;1270;22594;-86
2023/02/06 17:04:06;;;;;;;83.30;39.00;;;;;;;-5.35;81.50;101240.16;270209;1270;22657;-86
2023/02/06 17:10:10;;;;;;;99.50;44.90;;;;;;;-5.48;81.86;101249.27;270883;1264;22526;-86
2023/02/06 17:16:17;;;;;;;102.90;45.40;;;;;;;-5.63;81.99;101249.77;270327;1272;23327;-86
2023/02/06 17:22:19;;;;;;;127.50;52.00;;;;;;;-5.74;82.27;101256.86;270535;1270;23187;-86
2023/02/06 17:28:21;;;;;;;148.10;56.30;;;;;;;-5.87;82.38;101252.66;271256;1272;22281;-86
2023/02/06 17:34:33;;;;;;;204.70;74.40;;;;;;;-5.99;82.64;101241.65;269874;1269;10001572;-84
2023/02/06 17:40:36;;;;;;;205.50;72.50;;;;;;;-6.13;82.88;101240.93;272474;1270;22358;-84
2023/02/06 17:46:39;;;;;;;212.50;68.50;;;;;;;-6.31;82.90;101241.47;273038;1269;23501;-85
2023/02/06 17:52:41;;;;;;;183.10;60.80;;;;;;;-6.49;82.97;101244.56;273131;1272;23070;-85
2023/02/06 17:58:43;;;;;;;164.90;56.00;;;;;;;-6.64;83.24;101244.33;272972;1270;22528;-84
2023/02/06 18:04:53;;;;;;;165.50;58.30;;;;;;;-6.73;83.91;101249.91;273010;1269;22411;-84
2023/02/06 18:10:54;;;;;;;149.00;53.80;;;;;;;-6.84;83.67;101257.63;272801;1259;22539;-84
2023/02/06 18:16:56;;;;;;;126.80;46.40;;;;;;;-6.97;83.73;101264.37;272780;1260;22318;-84
2023/02/06 18:22:58;;;;;;;135.80;50.00;;;;;;;-7.10;83.80;101266.48;271869;1261;22329;-83
2023/02/06 18:29:04;;;;;;;151.40;57.00;;;;;;;-7.32;83.89;101267.28;272958;1270;23586;-84
2023/02/06 18:35:06;;;;;;;;;;;;;;;-7.47;84.16;101265.95;272897;1272;22413;-83
2023/02/06 18:42:49;;;;;;;162.00;56.90;;;;;;;-7.59;84.34;101263.29;272990;1270;23531;-82
2023/02/06 18:47:33;;;;;;;181.10;65.00;;;;;;;-7.73;84.63;101273.13;273108;1270;23558;-84
2023/02/06 18:53:35;;;;;;;180.20;66.80;;;;;;;-7.76;85.34;101281.38;273313;1270;22296;-81
2023/02/06 18:59:37;;;;;;;170.40;64.50;;;;;;;-7.77;85.70;101288.70;273101;1270;22376;-81
2023/02/06 19:05:39;;;;;;;186.00;69.20;;;;;;;-7.81;85.47;101292.95;273070;1270;22345;-82
2023/02/06 19:11:41;;;;;;;187.20;70.90;;;;;;;-7.89;85.70;101290.58;273572;1263;22354;-82
2023/02/06 19:17:43;;;;;;;162.10;63.90;;;;;;;-7.95;85.64;101282.89;272127;1262;22826;-81
2023/02/06 19:23:46;;;;;;;164.20;63.10;;;;;;;-8.04;85.63;101283.84;272690;1271;22438;-82
2023/02/06 19:29:48;;;;;;;163.10;63.70;;;;;;;-8.18;85.43;101300.23;273154;1272;22868;-81
2023/02/06 19:35:51;;;;;;;157.70;62.60;;;;;;;-8.36;85.56;101302.29;273142;1270;23645;-82
2023/02/06 19:41:53;;;;;;;162.20;64.40;;;;;;;-8.46;85.86;101294.63;273071;1270;22419;-81
2023/02/06 19:47:57;;;;;;;168.40;65.60;;;;;;;-8.58;85.90;101302.85;273080;1269;22330;-81
2023/02/06 19:53:59;;;;;;;167.10;65.20;;;;;;;-8.60;86.49;101307.87;273234;1260;22265;-81
2023/02/06 20:00:03;;;;;;;171.90;63.80;;;;;;;-8.63;86.47;101306.75;273154;1270;22374;-81
2023/02/06 20:06:12;;;;;;;167.80;64.50;;;;;;;-8.68;86.85;101306.02;272950;1270;23563;-81
2023/02/06 20:12:17;;;;;;;161.60;63.60;;;;;;;-8.64;87.08;101307.42;273546;1271;23110;-80
2023/02/06 20:18:20;;;;;;;170.20;69.20;;;;;;;-8.80;86.17;101310.39;273587;1261;22315;-82
2023/02/06 20:24:24;;;;;;;206.00;77.90;;;;;;;-9.04;86.28;101323.23;273157;1257;22345;-81
2023/02/06 20:30:29;;;;;;;181.10;68.10;;;;;;;-9.08;86.91;101330.46;273179;1261;22368;-81
2023/02/06 20:36:30;;;;;;;146.70;58.80;;;;;;;-9.09;87.19;101341.35;273342;1257;22849;-81
2023/02/06 20:42:33;;;;;;;208.70;82.20;;;;;;;-9.11;87.23;101343.73;272980;1271;22311;-81
2023/02/06 20:48:35;;;;;;;198.20;79.10;;;;;;;-9.14;87.19;101350.04;273346;1270;22932;-81
2023/02/06 20:54:37;;;;;;;198.70;79.70;;;;;;;-9.16;87.12;101353.20;273083;1270;22777;-82
2023/02/06 21:00:39;;;;;;;193.90;75.60;;;;;;;-9.28;86.57;101356.39;273258;1260;23422;-82
2023/02/06 21:06:41;;;;;;;218.40;87.30;;;;;;;-9.44;86.87;101354.81;273133;1270;23133;-82
2023/02/06 21:12:43;;;;;;;157.90;62.00;;;;;;;-9.52;86.87;101353.75;273068;1270;22492;-81
2023/02/06 21:18:45;;;;;;;226.40;87.50;;;;;;;-9.62;87.09;101357.14;273052;1270;22878;-81
2023/02/06 21:24:47;;;;;;;224.30;86.30;;;;;;;-9.72;86.69;101367.71;272796;1261;506792;-81
2023/02/06 21:30:49;;;;;;;244.50;97.10;;;;;;;-9.78;87.35;101377.11;273151;1261;22319;-81
2023/02/06 21:36:50;;;;;;;240.30;92.80;;;;;;;-9.70;87.68;101389.89;273135;1259;22927;-81
2023/02/06 21:42:52;;;;;;;252.00;96.10;;;;;;;-9.67;87.92;101399.46;273116;1270;23454;-81
2023/02/06 21:48:54;;;;;;;252.30;98.10;;;;;;;-9.62;88.24;101406.09;273410;1257;22263;-82
2023/02/06 21:54:56;;;;;;;257.00;97.10;;;;;;;-9.58;88.16;101408.31;273126;1267;22252;-81
2023/02/06 22:00:58;;;;;;;262.50;98.90;;;;;;;-9.54;88.52;101417.21;273062;1259;22260;-81
2023/02/06 22:07:00;;;;;;;255.50;98.40;;;;;;;-9.37;89.33;101428.70;273850;1259;22702;-81
2023/02/06 22:13:02;;;;;;;228.20;87.00;;;;;;;-9.21;89.46;101438.71;272339;1254;22579;-81
2023/02/06 22:19:05;;;;;;;258.20;97.20;;;;;;;-9.10;89.46;101450.33;270268;1269;23902;-81
2023/02/06 22:25:10;;;;;;;263.90;101.40;;;;;;;-8.92;90.15;101463.42;269889;1259;25530;-81
2023/02/06 22:31:15;;;;;;;266.60;102.30;;;;;;;-8.79;90.15;101472.83;269611;1270;22759;-81
2023/02/06 22:37:17;;;;;;;236.20;90.20;;;;;;;-8.70;90.38;101470.45;270956;1269;22890;-82
2023/02/06 22:43:19;;;;;;;233.90;90.50;;;;;;;-8.62;90.43;101476.75;271389;1259;22396;-82
2023/02/06 22:49:23;;;;;;;230.60;94.40;;;;;;;-8.52;90.57;101482.59;271361;1257;23566;-81
2023/02/06 22:56:25;;;;;;;261.50;98.00;;;;;;;-8.48;90.57;101488.80;273382;1255;22208;-81
2023/02/06 23:01:53;;;;;;;245.30;96.50;;;;;;;-8.38;91.02;101472.09;273348;1269;22254;-82
2023/02/06 23:07:55;;;;;;;277.90;98.90;;;;;;;-8.26;91.07;101456.77;269770;1269;25357;-81
2023/02/06 23:14:00;;;;;;;253.30;98.50;;;;;;;-8.17;91.18;101445.71;273037;1259;22225;-81
2023/02/06 23:20:03;;;;;;;253.80;102.80;;;;;;;-8.09;91.24;101442.18;273541;1269;22256;-82
2023/02/06 23:26:07;;;;;;;250.20;99.40;;;;;;;-8.09;90.96;101448.42;272681;1259;22658;-81
2023/02/06 23:32:09;;;;;;;234.30;89.70;;;;;;;-8.12;91.12;101446.45;270649;1259;22630;-82
2023/02/06 23:38:11;;;;;;;223.70;87.90;;;;;;;-8.11;91.27;101444.42;269984;1270;22615;-81
2023/02/06 23:44:16;;;;;;;222.40;84.80;;;;;;;-8.08;91.43;101436.75;269897;1269;22576;-81
2023/02/06 23:50:18;;;;;;;237.10;87.40;;;;;;;-8.04;91.41;101424.05;270781;1270;22229;-81
2023/02/06 23:56:24;;;;;;;235.70;90.00;;;;;;;-8.10;91.14;101409.02;272518;1256;22815;-81
